createdAt,value
2023-04-07T00:00:49.912Z,100212.13
2023-04-07T00:03:24.651Z,100213.34
2023-04-07T00:05:53.040Z,100210.61
2023-04-07T00:08:21.008Z,100208.70
2023-04-07T00:10:48.958Z,100209.96
2023-04-07T00:13:16.791Z,100208.32
2023-04-07T00:15:44.988Z,100209.17
2023-04-07T00:18:17.045Z,100216.39
2023-04-07T00:20:45.069Z,100216.59
2023-04-07T00:23:12.872Z,100221.30
2023-04-07T00:25:40.739Z,100223.35
2023-04-07T00:28:08.820Z,100218.59
2023-04-07T00:30:37.098Z,100220.61
2023-04-07T00:33:05.755Z,100224.39
2023-04-07T00:35:37.793Z,100223.45
2023-04-07T00:38:06.779Z,100232.84
2023-04-07T00:40:34.666Z,100232.74
2023-04-07T00:43:06.860Z,100233.18
2023-04-07T00:45:36.686Z,100234.96
2023-04-07T00:48:05.502Z,100237.14
2023-04-07T00:50:34.304Z,100237.65
2023-04-07T00:53:02.664Z,100239.61
2023-04-07T00:55:30.969Z,100242.92
2023-04-07T00:57:58.831Z,100239.67
2023-04-07T01:00:27.043Z,100241.98
2023-04-07T01:02:59.180Z,100244.31
2023-04-07T01:05:46.458Z,100247.78
2023-04-07T01:08:21.049Z,100249.80
2023-04-07T01:11:08.737Z,100250.73
2023-04-07T01:13:48.209Z,100252.37
2023-04-07T01:16:53.717Z,100257.47
2023-04-07T01:19:37.363Z,100259.12
2023-04-07T01:22:08.884Z,100264.09
2023-04-07T01:24:42.924Z,100267.42
2023-04-07T01:27:36.923Z,100265.05
2023-04-07T01:30:05.136Z,100268.04
2023-04-07T01:32:33.807Z,100267.80
2023-04-07T01:35:01.710Z,100271.41
2023-04-07T01:37:30.765Z,100278.45
2023-04-07T01:39:58.558Z,100275.40
2023-04-07T01:42:26.320Z,100275.34
2023-04-07T01:44:54.391Z,100277.73
2023-04-07T01:47:22.800Z,100276.88
2023-04-07T01:49:51.020Z,100278.32
2023-04-07T01:52:19.222Z,100276.89
2023-04-07T01:54:47.908Z,100280.56
2023-04-07T01:57:16.040Z,100279.96
2023-04-07T01:59:44.396Z,100282.91
2023-04-07T02:02:15.014Z,100286.30
2023-04-07T02:05:06.785Z,100283.97
2023-04-07T02:07:40.602Z,100292.66
2023-04-07T02:10:11.446Z,100296.77
2023-04-07T02:12:41.597Z,100293.17
2023-04-07T02:15:16.326Z,100295.23
2023-04-07T02:17:49.134Z,100299.41
2023-04-07T02:20:17.563Z,100302.94
2023-04-07T02:22:45.439Z,100302.96
2023-04-07T02:25:24.751Z,100302.31
2023-04-07T02:27:55.368Z,100302.16
2023-04-07T02:30:24.152Z,100303.02
2023-04-07T02:32:52.952Z,100305.66
2023-04-07T02:35:21.259Z,100304.39
2023-04-07T02:37:49.234Z,100305.88
2023-04-07T02:40:17.445Z,100304.63
2023-04-07T02:42:46.340Z,100306.44
2023-04-07T02:45:14.999Z,100309.91
2023-04-07T02:47:42.988Z,100314.02
2023-04-07T02:50:11.403Z,100319.29
2023-04-07T02:52:39.365Z,100323.27
2023-04-07T02:55:12.250Z,100325.67
2023-04-07T02:57:40.344Z,100323.18
2023-04-07T03:00:14.222Z,100329.59
2023-04-07T03:02:54.382Z,100330.48
2023-04-07T03:05:22.877Z,100336.17
2023-04-07T03:07:50.752Z,100340.39
2023-04-07T03:10:18.902Z,100340.91
2023-04-07T03:12:49.025Z,100344.44
2023-04-07T03:15:18.743Z,100349.98
2023-04-07T03:17:51.817Z,100357.37
2023-04-07T03:20:20.571Z,100360.86
2023-04-07T03:22:49.370Z,100360.40
2023-04-07T03:25:23.913Z,100364.63
2023-04-07T03:27:52.293Z,100367.88
2023-04-07T03:30:21.972Z,100371.25
2023-04-07T03:32:49.861Z,100374.33
2023-04-07T03:35:17.853Z,100376.86
2023-04-07T03:37:45.914Z,100380.90
2023-04-07T03:40:16.838Z,100383.75
2023-04-07T03:42:47.051Z,100384.15
2023-04-07T03:45:16.025Z,100388.59
2023-04-07T03:47:51.452Z,100391.45
2023-04-07T03:50:19.418Z,100390.39
2023-04-07T03:52:53.693Z,100394.81
2023-04-07T03:55:25.003Z,100398.15
2023-04-07T03:57:55.933Z,100403.63
2023-04-07T04:00:26.945Z,100405.36
2023-04-07T04:03:05.699Z,100410.25
2023-04-07T04:05:34.156Z,100414.55
2023-04-07T04:08:04.602Z,100413.52
2023-04-07T04:10:33.648Z,100417.95
2023-04-07T04:13:06.909Z,100420.02
2023-04-07T04:15:36.764Z,100421.67
2023-04-07T04:18:05.752Z,100422.73
2023-04-07T04:20:34.830Z,100428.27
2023-04-07T04:23:08.666Z,100427.88
2023-04-07T04:25:39.716Z,100431.16
2023-04-07T04:28:09.202Z,100437.04
2023-04-07T04:30:37.159Z,100438.30
2023-04-07T04:33:05.484Z,100437.64
2023-04-07T04:35:41.222Z,100442.68
2023-04-07T04:38:16.293Z,100443.30
2023-04-07T04:40:48.089Z,100447.13
2023-04-07T04:43:17.405Z,100447.56
2023-04-07T04:45:46.118Z,100449.73
2023-04-07T04:48:16.163Z,100455.79
2023-04-07T04:50:44.195Z,100459.81
2023-04-07T04:53:21.165Z,100460.45
2023-04-07T04:55:58.109Z,100463.94
2023-04-07T04:58:35.540Z,100466.73
2023-04-07T05:01:07.281Z,100466.00
2023-04-07T05:03:39.407Z,100472.05
2023-04-07T05:06:13.199Z,100474.76
2023-04-07T05:08:56.243Z,100481.43
2023-04-07T05:11:27.442Z,100481.05
2023-04-07T05:13:56.356Z,100477.73
2023-04-07T05:16:27.627Z,100482.71
2023-04-07T05:18:56.400Z,100485.31
2023-04-07T05:21:27.117Z,100487.01
2023-04-07T05:24:45.579Z,100490.88
2023-04-07T05:27:13.759Z,100493.38
2023-04-07T05:29:42.291Z,100495.00
2023-04-07T05:32:15.586Z,100501.42
2023-04-07T05:34:43.661Z,100498.65
2023-04-07T05:37:16.622Z,100501.52
2023-04-07T05:39:44.946Z,100506.18
2023-04-07T05:42:13.764Z,100505.89
2023-04-07T05:44:43.791Z,100512.23
2023-04-07T05:47:12.326Z,100507.27
2023-04-07T05:49:47.262Z,100514.44
2023-04-07T05:52:15.596Z,100510.83
2023-04-07T05:54:45.610Z,100513.73
2023-04-07T05:57:14.122Z,100515.66
2023-04-07T05:59:44.804Z,100517.11
2023-04-07T06:02:13.385Z,100521.80
2023-04-07T06:04:42.862Z,100525.25
2023-04-07T06:07:12.339Z,100526.04
2023-04-07T06:09:43.412Z,100529.58
2023-04-07T06:12:12.426Z,100534.57
2023-04-07T06:14:40.570Z,100532.04
2023-04-07T06:17:11.289Z,100538.23
2023-04-07T06:19:42.055Z,100534.67
2023-04-07T06:22:09.877Z,100535.81
2023-04-07T06:24:41.660Z,100541.48
2023-04-07T06:27:09.757Z,100543.02
2023-04-07T06:29:38.125Z,100544.36
2023-04-07T06:32:06.770Z,100549.38
2023-04-07T06:34:34.799Z,100558.44
2023-04-07T06:37:03.404Z,100557.05
2023-04-07T06:39:31.291Z,100558.72
2023-04-07T06:41:59.490Z,100558.54
2023-04-07T06:44:27.357Z,100561.81
2023-04-07T06:46:55.668Z,100567.61
2023-04-07T06:49:26.123Z,100567.48
2023-04-07T06:51:54.107Z,100570.31
2023-04-07T06:54:21.957Z,100573.64
2023-04-07T06:56:53.448Z,100574.99
2023-04-07T06:59:22.126Z,100575.46
2023-04-07T07:01:50.105Z,100571.67
2023-04-07T07:04:18.297Z,100569.84
2023-04-07T07:06:46.702Z,100576.52
2023-04-07T07:09:16.040Z,100575.91
2023-04-07T07:11:46.609Z,100575.39
2023-04-07T07:14:15.685Z,100577.61
2023-04-07T07:16:43.728Z,100579.03
2023-04-07T07:19:17.227Z,100579.39
2023-04-07T07:21:45.267Z,100579.05
2023-04-07T07:24:13.160Z,100584.78
2023-04-07T07:26:43.625Z,100583.58
2023-04-07T07:29:12.442Z,100583.46
2023-04-07T07:31:41.616Z,100587.94
2023-04-07T07:34:09.505Z,100586.02
2023-04-07T07:36:39.578Z,100588.09
2023-04-07T07:39:07.554Z,100588.23
2023-04-07T07:41:35.733Z,100585.02
2023-04-07T07:44:03.769Z,100585.67
2023-04-07T07:46:31.779Z,100587.58
2023-04-07T07:48:59.586Z,100586.48
2023-04-07T07:51:28.091Z,100588.39
2023-04-07T07:53:55.814Z,100593.08
2023-04-07T07:56:23.959Z,100590.35
2023-04-07T07:58:52.082Z,100586.97
2023-04-07T08:01:21.549Z,100587.23
2023-04-07T08:03:50.709Z,100584.18
2023-04-07T08:06:18.988Z,100591.98
2023-04-07T08:08:47.298Z,100593.06
2023-04-07T08:11:15.403Z,100594.47
2023-04-07T08:13:45.600Z,100592.86
2023-04-07T08:16:13.964Z,100592.68
2023-04-07T08:18:41.763Z,100592.91
2023-04-07T08:21:09.789Z,100593.52
2023-04-07T08:23:38.632Z,100595.77
2023-04-07T08:26:06.602Z,100598.48
2023-04-07T08:28:36.930Z,100600.79
2023-04-07T08:31:05.491Z,100601.02
2023-04-07T08:33:33.586Z,100602.13
2023-04-07T08:36:05.533Z,100603.85
2023-04-07T08:38:34.166Z,100600.71
2023-04-07T08:41:08.639Z,100598.77
2023-04-07T08:43:37.942Z,100597.81
2023-04-07T08:46:09.176Z,100594.23
2023-04-07T08:48:38.213Z,100595.73
2023-04-07T08:51:08.296Z,100601.07
2023-04-07T08:53:46.308Z,100600.90
2023-04-07T08:56:17.921Z,100598.88
2023-04-07T08:58:47.665Z,100598.11
2023-04-07T09:01:18.237Z,100594.34
2023-04-07T09:03:47.363Z,100597.50
2023-04-07T09:06:15.559Z,100601.45
2023-04-07T09:08:43.654Z,100602.23
2023-04-07T09:11:11.871Z,100601.30
2023-04-07T09:13:40.675Z,100600.65
2023-04-07T09:16:08.680Z,100601.44
2023-04-07T09:18:56.416Z,100602.10
2023-04-07T09:21:25.469Z,100607.19
2023-04-07T09:23:53.798Z,100607.45
2023-04-07T09:26:25.232Z,100608.68
2023-04-07T09:28:58.552Z,100602.21
2023-04-07T09:31:52.823Z,100605.31
2023-04-07T09:34:26.203Z,100607.60
2023-04-07T09:36:57.026Z,100611.02
2023-04-07T09:39:25.702Z,100609.31
2023-04-07T09:41:53.606Z,100608.54
2023-04-07T09:44:22.090Z,100609.33
2023-04-07T09:46:54.342Z,100608.84
2023-04-07T09:49:25.834Z,100608.88
2023-04-07T09:51:58.502Z,100612.08
2023-04-07T09:54:39.651Z,100605.44
2023-04-07T09:57:08.872Z,100605.96
2023-04-07T09:59:39.396Z,100606.08
2023-04-07T10:02:08.564Z,100606.34
2023-04-07T10:04:37.452Z,100601.10
2023-04-07T10:07:05.692Z,100599.45
2023-04-07T10:09:33.989Z,100602.46
2023-04-07T10:12:04.326Z,100605.24
2023-04-07T10:14:32.517Z,100602.32
2023-04-07T10:17:03.476Z,100603.77
2023-04-07T10:19:32.711Z,100605.68
2023-04-07T10:22:02.090Z,100607.02
2023-04-07T10:24:49.620Z,100612.17
2023-04-07T10:27:19.934Z,100609.13
2023-04-07T10:29:49.224Z,100607.54
2023-04-07T10:32:17.315Z,100610.14
2023-04-07T10:34:55.947Z,100610.28
2023-04-07T10:37:24.203Z,100609.52
2023-04-07T10:40:12.822Z,100611.71
2023-04-07T10:42:40.926Z,100612.53
2023-04-07T10:45:09.625Z,100611.27
2023-04-07T10:48:11.318Z,100614.09
2023-04-07T10:50:39.373Z,100614.45
2023-04-07T10:53:10.846Z,100616.98
2023-04-07T10:55:43.961Z,100618.00
2023-04-07T10:58:18.875Z,100614.52
2023-04-07T11:01:07.814Z,100612.73
2023-04-07T11:03:39.697Z,100611.69
2023-04-07T11:06:12.667Z,100610.48
2023-04-07T11:08:42.347Z,100609.48
2023-04-07T11:11:13.710Z,100612.74
2023-04-07T11:13:49.859Z,100610.16
2023-04-07T11:16:19.628Z,100608.86
2023-04-07T11:18:50.152Z,100604.95
2023-04-07T11:21:18.761Z,100604.98
2023-04-07T11:23:47.099Z,100605.20
2023-04-07T11:26:16.171Z,100603.55
2023-04-07T11:28:51.466Z,100604.23
2023-04-07T11:31:23.204Z,100603.33
2023-04-07T11:33:59.280Z,100604.08
2023-04-07T11:36:31.029Z,100600.83
2023-04-07T11:38:59.616Z,100601.02
2023-04-07T11:41:28.183Z,100599.77
2023-04-07T11:44:12.155Z,100600.77
2023-04-07T11:46:54.743Z,100599.51
2023-04-07T11:49:23.903Z,100605.39
2023-04-07T11:52:05.873Z,100602.45
2023-04-07T11:54:41.416Z,100599.21
2023-04-07T11:57:12.463Z,100600.11
2023-04-07T11:59:43.677Z,100596.08
2023-04-07T12:02:11.588Z,100600.41
2023-04-07T12:04:40.747Z,100594.45
2023-04-07T12:07:09.883Z,100596.34
2023-04-07T12:09:38.761Z,100594.64
2023-04-07T12:12:08.160Z,100595.88
2023-04-07T12:14:56.416Z,100587.88
2023-04-07T12:17:26.680Z,100587.71
2023-04-07T12:19:54.455Z,100588.25
2023-04-07T12:22:23.879Z,100591.17
2023-04-07T12:24:51.936Z,100588.12
2023-04-07T12:27:41.585Z,100585.88
2023-04-07T12:30:12.916Z,100587.49
2023-04-07T12:32:43.425Z,100588.77
2023-04-07T12:35:13.250Z,100584.50
2023-04-07T12:37:41.648Z,100582.40
2023-04-07T12:40:10.445Z,100580.28
2023-04-07T12:42:41.848Z,100581.48
2023-04-07T12:45:11.961Z,100583.20
2023-04-07T12:47:40.846Z,100577.02
2023-04-07T12:50:09.086Z,100579.46
2023-04-07T12:52:44.274Z,100582.38
2023-04-07T12:55:14.304Z,100580.98
2023-04-07T12:57:42.540Z,100577.87
2023-04-07T13:00:11.402Z,100579.80
2023-04-07T13:02:42.638Z,100582.34
2023-04-07T13:05:10.620Z,100577.59
2023-04-07T13:07:42.634Z,100580.23
2023-04-07T13:10:12.187Z,100582.73
2023-04-07T13:12:41.317Z,100579.80
2023-04-07T13:15:09.229Z,100581.80
2023-04-07T13:17:38.595Z,100584.85
2023-04-07T13:20:07.796Z,100581.04
2023-04-07T13:22:36.252Z,100583.09
2023-04-07T13:25:04.921Z,100579.23
2023-04-07T13:27:34.108Z,100579.48
2023-04-07T13:30:02.256Z,100579.91
2023-04-07T13:32:34.630Z,100580.66
2023-04-07T13:35:05.068Z,100577.99
2023-04-07T13:37:33.120Z,100576.30
2023-04-07T13:40:01.107Z,100576.35
2023-04-07T13:42:29.266Z,100574.65
2023-04-07T13:44:57.135Z,100575.55
2023-04-07T13:47:26.548Z,100575.30
2023-04-07T13:49:54.339Z,100576.47
2023-04-07T13:52:22.956Z,100575.82
2023-04-07T13:54:51.615Z,100577.60
2023-04-07T13:57:21.126Z,100575.83
2023-04-07T13:59:49.503Z,100580.69
2023-04-07T14:02:18.199Z,100575.67
2023-04-07T14:04:46.472Z,100573.94
2023-04-07T14:07:16.063Z,100572.73
2023-04-07T14:09:48.236Z,100573.11
2023-04-07T14:12:16.340Z,100569.79
2023-04-07T14:14:45.773Z,100571.34
2023-04-07T14:17:13.786Z,100575.04
2023-04-07T14:19:42.180Z,100575.70
2023-04-07T14:22:11.125Z,100577.64
2023-04-07T14:24:39.974Z,100579.15
2023-04-07T14:27:08.205Z,100577.50
2023-04-07T14:29:36.713Z,100576.15
2023-04-07T14:32:04.699Z,100577.20
2023-04-07T14:34:32.624Z,100580.09
2023-04-07T14:37:00.541Z,100582.66
2023-04-07T14:39:29.090Z,100581.34
2023-04-07T14:41:57.003Z,100584.54
2023-04-07T14:44:25.247Z,100579.42
2023-04-07T14:46:53.145Z,100577.52
2023-04-07T14:49:21.170Z,100577.85
2023-04-07T14:51:49.324Z,100576.08
2023-04-07T14:54:18.015Z,100576.48
2023-04-07T14:56:45.879Z,100574.11
2023-04-07T14:59:17.024Z,100579.34
2023-04-07T15:01:44.944Z,100580.59
2023-04-07T15:04:14.243Z,100579.83
2023-04-07T15:06:42.905Z,100581.50
2023-04-07T15:09:10.974Z,100578.48
2023-04-07T15:11:38.789Z,100578.46
2023-04-07T15:14:06.764Z,100578.05
2023-04-07T15:16:34.960Z,100577.98
2023-04-07T15:19:03.111Z,100579.02
2023-04-07T15:21:31.585Z,100575.46
2023-04-07T15:23:59.550Z,100578.64
2023-04-07T15:26:27.671Z,100580.29
2023-04-07T15:28:58.313Z,100581.48
2023-04-07T15:31:28.488Z,100581.40
2023-04-07T15:33:57.216Z,100580.86
2023-04-07T15:36:26.015Z,100579.60
2023-04-07T15:38:54.581Z,100584.08
2023-04-07T15:41:23.423Z,100584.77
2023-04-07T15:43:51.528Z,100584.45
2023-04-07T15:46:19.568Z,100583.44
2023-04-07T15:48:48.040Z,100584.15
2023-04-07T15:51:16.207Z,100583.04
2023-04-07T15:53:46.458Z,100585.70
2023-04-07T15:56:14.352Z,100584.50
2023-04-07T15:58:45.141Z,100589.45
2023-04-07T16:01:13.001Z,100585.23
2023-04-07T16:03:42.167Z,100583.04
2023-04-07T16:06:10.781Z,100583.65
2023-04-07T16:08:38.624Z,100588.36
2023-04-07T16:11:07.198Z,100590.23
2023-04-07T16:13:35.184Z,100591.39
2023-04-07T16:16:08.633Z,100592.23
2023-04-07T16:18:39.318Z,100591.29
2023-04-07T16:21:08.610Z,100592.14
2023-04-07T16:23:42.742Z,100593.16
2023-04-07T16:26:11.079Z,100596.42
2023-04-07T16:28:41.876Z,100596.98
2023-04-07T16:31:12.325Z,100600.44
2023-04-07T16:33:40.806Z,100603.30
2023-04-07T16:36:08.854Z,100607.64
2023-04-07T16:38:38.365Z,100607.44
2023-04-07T16:41:07.590Z,100612.90
2023-04-07T16:43:36.665Z,100610.70
2023-04-07T16:46:06.379Z,100612.34
2023-04-07T16:48:34.432Z,100613.27
2023-04-07T16:51:02.188Z,100614.23
2023-04-07T16:53:30.048Z,100614.71
2023-04-07T16:55:57.849Z,100621.30
2023-04-07T16:58:25.968Z,100621.59
2023-04-07T17:00:53.953Z,100625.48
2023-04-07T17:03:23.345Z,100633.41
2023-04-07T17:05:51.394Z,100637.94
2023-04-07T17:08:19.762Z,100645.44
2023-04-07T17:10:47.580Z,100657.40
2023-04-07T17:13:15.467Z,100665.16
2023-04-07T17:15:47.733Z,100676.23
2023-04-07T17:18:16.552Z,100679.81
2023-04-07T17:20:44.458Z,100684.57
2023-04-07T17:23:18.326Z,100680.66
2023-04-07T17:25:48.973Z,100678.07
2023-04-07T17:28:17.547Z,100681.41
2023-04-07T17:30:46.113Z,100676.16
2023-04-07T17:33:14.881Z,100684.33
2023-04-07T17:35:42.768Z,100692.50
2023-04-07T17:38:11.433Z,100696.30
2023-04-07T17:43:00.149Z,100693.70
2023-04-07T17:45:28.325Z,100700.42
2023-04-07T17:47:56.296Z,100706.43
2023-04-07T17:50:29.620Z,100711.75
2023-04-07T17:53:00.026Z,100716.64
2023-04-07T17:55:28.468Z,100721.80
2023-04-07T17:58:01.003Z,100726.73
2023-04-07T18:00:29.823Z,100732.73
2023-04-07T18:03:11.788Z,100732.31
2023-04-07T18:05:45.021Z,100733.70
2023-04-07T18:08:13.277Z,100734.77
2023-04-07T18:10:41.391Z,100732.77
2023-04-07T18:13:09.490Z,100734.29
2023-04-07T18:15:38.099Z,100732.04
2023-04-07T18:18:06.503Z,100731.88
2023-04-07T18:20:36.149Z,100732.79
2023-04-07T18:23:04.901Z,100735.59
2023-04-07T18:25:34.074Z,100735.02
2023-04-07T18:28:05.612Z,100734.05
2023-04-07T18:30:35.504Z,100734.98
2023-04-07T18:33:08.528Z,100736.34
2023-04-07T18:35:41.862Z,100737.08
2023-04-07T18:38:10.024Z,100739.56
2023-04-07T18:40:38.092Z,100746.23
2023-04-07T18:43:05.882Z,100748.08
2023-04-07T18:45:36.811Z,100750.05
2023-04-07T18:48:05.679Z,100748.25
2023-04-07T18:50:34.254Z,100746.48
2023-04-07T18:53:02.308Z,100745.23
2023-04-07T18:55:30.168Z,100744.24
2023-04-07T18:58:00.727Z,100743.55
2023-04-07T19:00:35.906Z,100744.38
2023-04-07T19:03:04.076Z,100743.45
2023-04-07T19:05:31.946Z,100739.88
2023-04-07T19:08:00.292Z,100744.50
2023-04-07T19:10:28.374Z,100745.55
2023-04-07T19:12:56.711Z,100743.01
2023-04-07T19:15:36.427Z,100749.42
2023-04-07T19:18:04.307Z,100748.17
2023-04-07T19:20:33.913Z,100749.73
2023-04-07T19:23:02.051Z,100750.21
2023-04-07T19:25:31.181Z,100743.22
2023-04-07T19:27:59.096Z,100744.88
2023-04-07T19:30:26.989Z,100751.21
2023-04-07T19:32:56.486Z,100748.37
2023-04-07T19:35:24.332Z,100748.39
2023-04-07T19:37:53.561Z,100747.87
2023-04-07T19:40:21.396Z,100751.39
2023-04-07T19:42:50.127Z,100746.97
2023-04-07T19:45:18.035Z,100748.85
2023-04-07T19:47:46.190Z,100751.00
2023-04-07T19:50:17.630Z,100748.29
2023-04-07T19:52:45.621Z,100748.58
2023-04-07T19:55:13.588Z,100747.33
2023-04-07T19:57:42.125Z,100744.23
2023-04-07T20:00:13.441Z,100744.88
2023-04-07T20:03:09.822Z,100748.95
2023-04-07T20:05:38.416Z,100741.65
2023-04-07T20:08:07.573Z,100741.93
2023-04-07T20:10:35.438Z,100746.36
2023-04-07T20:13:06.392Z,100746.86
2023-04-07T20:15:36.629Z,100750.86
2023-04-07T20:18:04.794Z,100750.32
2023-04-07T20:20:33.322Z,100754.75
2023-04-07T20:23:01.936Z,100759.38
2023-04-07T20:25:29.752Z,100762.85
2023-04-07T20:28:01.795Z,100759.39
2023-04-07T20:30:29.855Z,100758.25
2023-04-07T20:32:59.080Z,100755.11
2023-04-07T20:35:27.175Z,100760.81
2023-04-07T20:37:55.269Z,100758.64
2023-04-07T20:40:36.528Z,100757.52
2023-04-07T20:43:05.540Z,100753.15
2023-04-07T20:45:34.108Z,100752.63
2023-04-07T20:48:02.776Z,100755.29
2023-04-07T20:50:31.240Z,100755.25
2023-04-07T20:52:59.173Z,100754.45
2023-04-07T20:55:27.210Z,100755.42
2023-04-07T20:57:55.137Z,100753.95
2023-04-07T21:00:24.114Z,100751.77
2023-04-07T21:02:52.239Z,100749.83
2023-04-07T21:05:20.804Z,100747.44
2023-04-07T21:07:48.875Z,100745.82
2023-04-07T21:10:16.814Z,100746.08
2023-04-07T21:12:44.638Z,100744.26
2023-04-07T21:15:18.466Z,100746.38
2023-04-07T21:17:47.650Z,100748.52
2023-04-07T21:20:15.817Z,100748.53
2023-04-07T21:22:44.449Z,100748.88
2023-04-07T21:25:12.805Z,100750.86
2023-04-07T21:27:40.950Z,100752.92
2023-04-07T21:30:09.781Z,100752.11
2023-04-07T21:32:38.073Z,100751.64
2023-04-07T21:35:07.900Z,100753.66
2023-04-07T21:37:35.821Z,100746.64
2023-04-07T21:40:04.664Z,100747.15
2023-04-07T21:42:33.035Z,100747.64
2023-04-07T21:45:00.954Z,100742.30
2023-04-07T21:47:29.055Z,100748.14
2023-04-07T21:49:57.884Z,100745.10
2023-04-07T21:52:26.442Z,100743.32
2023-04-07T21:54:54.430Z,100740.12
2023-04-07T21:57:31.352Z,100738.94
2023-04-07T21:59:59.468Z,100740.27
2023-04-07T22:02:27.469Z,100741.79
2023-04-07T22:04:55.494Z,100744.09
2023-04-07T22:07:23.928Z,100739.92
2023-04-07T22:09:52.051Z,100737.92
2023-04-07T22:12:19.989Z,100739.98
2023-04-07T22:14:48.288Z,100741.90
2023-04-07T22:17:16.324Z,100739.77
2023-04-07T22:19:50.382Z,100739.71
2023-04-07T22:22:18.376Z,100735.23
2023-04-07T22:24:46.276Z,100740.09
2023-04-07T22:27:14.448Z,100739.36
2023-04-07T22:29:42.792Z,100739.45
2023-04-07T22:32:12.045Z,100737.63
2023-04-07T22:34:40.386Z,100737.23
2023-04-07T22:37:08.135Z,100736.92
2023-04-07T22:39:36.687Z,100733.71
2023-04-07T22:42:04.805Z,100727.67
2023-04-07T22:44:33.005Z,100727.42
2023-04-07T22:47:01.393Z,100727.06
2023-04-07T22:49:29.978Z,100725.32
2023-04-07T22:51:57.848Z,100723.52
2023-04-07T22:54:25.651Z,100724.80
2023-04-07T22:56:55.196Z,100724.89
2023-04-07T22:59:23.072Z,100726.17
2023-04-07T23:01:51.057Z,100729.14
2023-04-07T23:04:18.911Z,100728.45
2023-04-07T23:06:47.304Z,100732.49
2023-04-07T23:09:15.563Z,100730.99
2023-04-07T23:11:45.718Z,100730.60
2023-04-07T23:14:13.911Z,100729.66
2023-04-07T23:16:43.145Z,100726.23
2023-04-07T23:19:12.021Z,100720.13
2023-04-07T23:21:40.045Z,100708.77
2023-04-07T23:24:11.156Z,100702.02
2023-04-07T23:26:40.163Z,100695.14
2023-04-07T23:29:13.789Z,100693.50
2023-04-07T23:31:42.289Z,100698.23
2023-04-07T23:34:10.253Z,100701.11
2023-04-07T23:36:39.657Z,100700.71
2023-04-07T23:39:07.488Z,100698.68
2023-04-07T23:41:35.263Z,100697.73
2023-04-07T23:44:03.878Z,100699.39
2023-04-07T23:46:31.861Z,100706.81
2023-04-07T23:48:59.733Z,100705.64
2023-04-07T23:51:28.166Z,100700.38
2023-04-07T23:53:56.938Z,100702.92
2023-04-07T23:56:24.955Z,100700.05
2023-04-07T23:58:52.824Z,100692.17
